New Canada, Maine
Current Conditions -  °F | °C
As of 6:09 PM on Thursday 20 Nov 2014 (Local Time) from KFVE Reporting Station
Light Snow Light Snow  
Wind Chill: 15°   Ceiling: 2400
Heat Index: 23°   Visibility: 1.2mi
Dew Point: 19°   Wind: 7mph
Humidity: 85%   Direction: 220°SW
Pressure: 29.64"   Gusts: NA
Location:  47.0224°N, 68.6923°W
Report Text: KFVE 202309Z AUTO 22006KT 1 1/4SM -SN BR OVC024 M05/M07 A2964 RMK AO2 SNB2256 P0000 T10501072
Loading
Personal Weather Stations






























Interactive Weather Map New forecast layout! Learn more

10-Day Weather Forecast

Advertisements
Track Severe Weather on mobile